KOGB/OGB METAR and TAF weather

Enter ICAO airport designator
Station Type Date Time Source
KOGB METAR 2022/06/26 08:53 UTC NOAA

KOGB 260853Z AUTO 00000KT 10SM CLR 21/19 A3012 RMK AO2 SLP198 T02060194 55006


Station Type Date Time Source
KOGB Decoded METAR 2022/06/26 08:53 UTC NOAA

ORANGEBURG MUNICIPAL AIRPORT, SC, United States (KOGB) 33-28N 080-51W 59M
Jun 26, 2022 - 04:53 AM EDT / 2022.06.26 0853 UTC
Wind: Calm:0
Visibility: 10 mile(s):0
Sky conditions: clear
Temperature: 69.1 F (20.6 C)
Dew Point: 66.9 F (19.4 C)
Relative Humidity: 92%
Pressure (altimeter): 30.12 in. Hg (1019 hPa)
Pressure tendency: 0.02 inches (0.6 hPa) lower than three hours ago
ob: KOGB 260853Z AUTO 00000KT 10SM CLR 21/19 A3012 RMK AO2 SLP198 T02060194 55006
cycle: 9

Station Type Date Time Source
KOGB TAF 2022/06/26 06:22 UTC NOAA

TAF KOGB 260520Z 2606/2706 VRB03KT P6SM BKN070
FM261000 VRB03KT P6SM SCT012 BKN250
FM261400 09005KT P6SM SCT040 BKN250
FM261700 12007KT P6SM SCT070 BKN250

Example: see airport list